createdAt,value
2024-05-09T00:00:39.255Z,17.70
2024-05-09T00:03:10.071Z,17.60
2024-05-09T00:05:43.114Z,17.50
2024-05-09T00:08:11.906Z,17.50
2024-05-09T00:10:40.818Z,17.50
2024-05-09T00:13:10.770Z,17.50
2024-05-09T00:15:39.141Z,17.40
2024-05-09T00:18:07.769Z,17.40
2024-05-09T00:20:39.748Z,17.40
2024-05-09T00:23:10.003Z,17.40
2024-05-09T00:25:38.927Z,17.40
2024-05-09T00:28:06.944Z,17.40
2024-05-09T00:30:36.669Z,17.40
2024-05-09T00:33:07.689Z,17.40
2024-05-09T00:35:36.743Z,17.50
2024-05-09T00:38:04.936Z,17.40
2024-05-09T00:40:41.659Z,17.30
2024-05-09T00:43:12.387Z,17.30
2024-05-09T00:45:41.215Z,17.30
2024-05-09T00:48:13.459Z,17.30
2024-05-09T00:50:45.390Z,17.30
2024-05-09T00:53:16.072Z,17.30
2024-05-09T00:55:45.209Z,17.30
2024-05-09T00:58:16.298Z,17.30
2024-05-09T01:00:44.624Z,17.20
2024-05-09T01:03:14.097Z,17.20
2024-05-09T01:05:44.499Z,17.30
2024-05-09T01:08:13.448Z,17.20
2024-05-09T01:10:44.981Z,17.20
2024-05-09T01:13:14.127Z,17.30
2024-05-09T01:15:42.239Z,17.30
2024-05-09T01:18:13.914Z,17.30
2024-05-09T01:20:44.440Z,17.20
2024-05-09T01:23:15.339Z,17.20
2024-05-09T01:25:46.068Z,17.10
2024-05-09T01:28:14.495Z,17.10
2024-05-09T01:30:42.212Z,17.10
2024-05-09T01:33:11.800Z,17.20
2024-05-09T01:35:41.996Z,17.20
2024-05-09T01:38:11.989Z,17.10
2024-05-09T01:40:40.461Z,17.10
2024-05-09T01:43:10.035Z,17.10
2024-05-09T01:45:42.864Z,17.10
2024-05-09T01:48:11.459Z,17.10
2024-05-09T01:50:42.249Z,17.00
2024-05-09T01:53:13.721Z,17.00
2024-05-09T01:55:42.545Z,16.90
2024-05-09T01:58:10.268Z,16.90
2024-05-09T02:00:41.508Z,16.80
2024-05-09T02:03:15.218Z,16.80
2024-05-09T02:05:46.956Z,16.80
2024-05-09T02:08:17.876Z,16.80
2024-05-09T02:10:47.837Z,16.80
2024-05-09T02:13:16.754Z,16.70
2024-05-09T02:15:44.880Z,16.70
2024-05-09T02:18:13.127Z,16.60
2024-05-09T02:20:42.389Z,16.60
2024-05-09T02:23:11.315Z,16.60
2024-05-09T02:25:39.213Z,16.50
2024-05-09T02:28:07.135Z,16.50
2024-05-09T02:30:39.689Z,16.50
2024-05-09T02:33:12.960Z,16.50
2024-05-09T02:35:44.049Z,16.50
2024-05-09T02:38:12.652Z,16.50
2024-05-09T02:40:40.950Z,16.50
2024-05-09T02:43:12.646Z,16.40
2024-05-09T02:45:41.071Z,16.30
2024-05-09T02:48:12.681Z,16.20
2024-05-09T02:50:41.409Z,16.10
2024-05-09T02:53:10.047Z,16.00
2024-05-09T02:55:39.204Z,16.00
2024-05-09T02:58:10.698Z,15.90
2024-05-09T03:00:41.555Z,16.00
2024-05-09T03:03:14.056Z,16.00
2024-05-09T03:05:46.612Z,16.00
2024-05-09T03:08:14.928Z,16.00
2024-05-09T03:10:43.016Z,16.10
2024-05-09T03:13:14.576Z,16.00
2024-05-09T03:15:44.193Z,16.00
2024-05-09T03:18:12.740Z,16.00
2024-05-09T03:20:40.913Z,15.90
2024-05-09T03:23:10.017Z,15.90
2024-05-09T03:25:38.836Z,15.90
2024-05-09T03:28:07.121Z,15.80
2024-05-09T03:30:41.108Z,15.80
2024-05-09T03:33:15.713Z,15.80
2024-05-09T03:35:44.612Z,15.80
2024-05-09T03:38:12.568Z,15.70
2024-05-09T03:40:48.723Z,15.70
2024-05-09T03:43:17.146Z,15.80
2024-05-09T03:45:46.206Z,15.60
2024-05-09T03:48:14.599Z,15.60
2024-05-09T03:50:42.577Z,15.60
2024-05-09T03:53:14.678Z,15.60
2024-05-09T03:55:42.554Z,15.70
2024-05-09T03:58:10.204Z,15.70
2024-05-09T04:00:39.607Z,15.70
2024-05-09T04:03:11.196Z,15.70
2024-05-09T04:05:42.675Z,15.60
2024-05-09T04:08:11.488Z,15.50
2024-05-09T04:10:39.607Z,15.50
2024-05-09T04:13:07.223Z,15.50
2024-05-09T04:15:34.806Z,15.40
2024-05-09T04:18:02.958Z,15.40
2024-05-09T04:20:38.062Z,15.40
2024-05-09T04:23:12.022Z,15.40
2024-05-09T04:25:45.271Z,15.40
2024-05-09T04:28:14.796Z,15.30
2024-05-09T04:30:43.107Z,15.30
2024-05-09T04:33:13.371Z,15.30
2024-05-09T04:35:43.628Z,15.20
2024-05-09T04:38:12.491Z,15.20
2024-05-09T04:40:40.315Z,15.30
2024-05-09T04:43:14.967Z,15.40
2024-05-09T04:45:42.732Z,15.60
2024-05-09T04:48:11.301Z,15.70
2024-05-09T04:50:39.992Z,16.00
2024-05-09T04:53:10.765Z,16.10
2024-05-09T04:55:40.679Z,16.20
2024-05-09T04:58:10.264Z,16.30
2024-05-09T05:00:41.533Z,16.50
2024-05-09T05:03:14.225Z,16.70
2024-05-09T05:05:45.244Z,17.00
2024-05-09T05:08:15.399Z,17.20
2024-05-09T05:10:44.770Z,17.30
2024-05-09T05:13:12.647Z,17.50
2024-05-09T05:15:40.227Z,17.70
2024-05-09T05:18:08.090Z,17.90
2024-05-09T05:20:36.016Z,18.00
2024-05-09T05:23:03.699Z,18.00
2024-05-09T05:25:31.425Z,18.10
2024-05-09T05:27:59.061Z,18.50
2024-05-09T05:30:29.380Z,18.60
2024-05-09T05:33:02.504Z,18.60
2024-05-09T05:35:30.751Z,18.70
2024-05-09T05:37:58.391Z,19.00
2024-05-09T05:40:33.215Z,18.90
2024-05-09T05:43:06.336Z,19.30
2024-05-09T05:45:33.781Z,19.50
2024-05-09T05:48:06.125Z,19.60
2024-05-09T05:50:37.194Z,19.80
2024-05-09T05:53:08.109Z,20.00
2024-05-09T05:55:37.645Z,20.00
2024-05-09T05:58:05.465Z,20.10
2024-05-09T06:00:38.942Z,20.50
2024-05-09T06:03:12.761Z,20.50
2024-05-09T06:05:41.350Z,20.60
2024-05-09T06:08:09.418Z,20.60
2024-05-09T06:10:40.026Z,20.80
2024-05-09T06:13:10.220Z,20.40
2024-05-09T06:15:37.856Z,20.60
2024-05-09T06:18:07.127Z,20.70
2024-05-09T06:20:37.380Z,20.60
2024-05-09T06:23:06.985Z,20.80
2024-05-09T06:25:36.265Z,20.50
2024-05-09T06:28:04.752Z,20.50
2024-05-09T06:30:38.599Z,20.80
2024-05-09T06:33:11.830Z,21.00
2024-05-09T06:35:41.600Z,21.10
2024-05-09T06:38:09.944Z,20.90
2024-05-09T06:40:42.411Z,20.80
2024-05-09T06:43:13.506Z,21.00
2024-05-09T06:45:41.309Z,21.00
2024-05-09T06:48:12.311Z,21.40
2024-05-09T06:50:41.520Z,21.10
2024-05-09T06:53:09.489Z,21.20
2024-05-09T06:55:38.146Z,21.60
2024-05-09T06:58:09.610Z,21.60
2024-05-09T07:00:40.084Z,21.90
2024-05-09T07:03:11.549Z,21.90
2024-05-09T07:05:40.697Z,21.90
2024-05-09T07:08:08.552Z,21.60
2024-05-09T07:10:37.189Z,22.10
2024-05-09T07:13:13.181Z,22.40
2024-05-09T07:15:41.757Z,22.60
2024-05-09T07:18:18.456Z,23.00
2024-05-09T07:20:48.514Z,23.10
2024-05-09T07:23:20.021Z,23.10
2024-05-09T07:25:47.915Z,22.80
2024-05-09T07:28:17.356Z,22.90
2024-05-09T07:30:45.709Z,23.50
2024-05-09T07:33:18.010Z,23.50
2024-05-09T07:35:46.131Z,23.50
2024-05-09T07:38:14.087Z,23.20
2024-05-09T07:40:41.972Z,23.30
2024-05-09T07:43:10.038Z,23.20
2024-05-09T07:45:48.593Z,23.10
2024-05-09T07:52:37.567Z,23.50
2024-05-09T07:56:11.910Z,24.10
2024-05-09T07:58:39.836Z,24.20
2024-05-09T08:01:07.513Z,24.40
2024-05-09T08:03:35.665Z,25.10
2024-05-09T08:06:03.300Z,25.60
2024-05-09T08:08:30.985Z,26.10
2024-05-09T08:10:58.536Z,26.50
2024-05-09T08:13:26.063Z,26.70
2024-05-09T08:15:53.775Z,26.60
2024-05-09T08:18:21.440Z,26.10
2024-05-09T08:20:49.646Z,25.90
2024-05-09T08:23:17.415Z,25.80
2024-05-09T08:25:45.266Z,25.60
2024-05-09T08:28:13.025Z,25.50
2024-05-09T08:30:40.975Z,25.50
2024-05-09T08:33:08.895Z,25.50
2024-05-09T08:35:36.739Z,25.30
2024-05-09T08:38:06.334Z,25.30
2024-05-09T08:40:36.470Z,25.60
2024-05-09T08:43:11.384Z,26.00
2024-05-09T08:45:41.351Z,26.40
2024-05-09T08:48:09.280Z,26.90
2024-05-09T08:50:40.791Z,27.00
2024-05-09T08:53:09.198Z,27.10
2024-05-09T08:55:41.531Z,27.50
2024-05-09T08:58:16.827Z,27.50
2024-05-09T09:00:46.188Z,27.60
2024-05-09T09:03:27.259Z,27.80
2024-05-09T09:06:03.633Z,27.50
2024-05-09T09:08:31.347Z,27.50
2024-05-09T09:10:59.686Z,27.50
2024-05-09T09:13:27.908Z,27.30
2024-05-09T09:15:55.696Z,26.60
2024-05-09T09:18:28.008Z,26.30
2024-05-09T09:20:56.395Z,26.60
2024-05-09T09:23:23.933Z,27.00
2024-05-09T09:25:51.565Z,27.00
2024-05-09T09:28:22.975Z,27.50
2024-05-09T09:30:50.777Z,26.90
2024-05-09T09:33:18.842Z,27.00
2024-05-09T09:35:46.798Z,26.50
2024-05-09T09:38:21.795Z,27.60
2024-05-09T09:40:51.026Z,26.80
2024-05-09T09:43:22.950Z,27.00
2024-05-09T09:45:53.246Z,27.80
2024-05-09T09:48:23.300Z,28.30
2024-05-09T09:50:55.707Z,27.60
2024-05-09T09:53:28.382Z,27.90
2024-05-09T09:55:56.438Z,28.40
2024-05-09T09:58:25.297Z,28.70
2024-05-09T10:00:53.227Z,28.50
2024-05-09T10:03:21.301Z,27.90
2024-05-09T10:05:50.230Z,27.80
2024-05-09T10:08:19.226Z,27.40
2024-05-09T10:10:48.276Z,27.70
2024-05-09T10:13:16.297Z,26.90
2024-05-09T10:15:52.510Z,27.30
2024-05-09T10:18:21.232Z,27.10
2024-05-09T10:20:49.187Z,27.50
2024-05-09T10:23:30.881Z,27.70
2024-05-09T10:26:03.861Z,28.00
2024-05-09T10:28:33.824Z,28.20
2024-05-09T10:31:11.738Z,28.70
2024-05-09T10:33:45.951Z,29.10
2024-05-09T10:36:32.672Z,29.30
2024-05-09T10:39:00.591Z,29.70
2024-05-09T10:41:28.443Z,29.60
2024-05-09T10:43:56.254Z,30.10
2024-05-09T10:46:25.447Z,30.30
2024-05-09T10:48:53.235Z,30.30
2024-05-09T10:51:21.560Z,30.10
2024-05-09T10:53:49.353Z,30.10
2024-05-09T10:56:17.604Z,29.80
2024-05-09T10:58:45.705Z,29.80
2024-05-09T11:01:14.300Z,28.80
2024-05-09T11:03:42.760Z,28.70
2024-05-09T11:06:11.933Z,28.70
2024-05-09T11:08:39.877Z,28.80
2024-05-09T11:11:08.906Z,29.60
2024-05-09T11:13:40.952Z,30.00
2024-05-09T11:16:21.945Z,30.30
2024-05-09T11:18:57.230Z,29.10
2024-05-09T11:21:25.616Z,29.30
2024-05-09T11:23:53.459Z,28.70
2024-05-09T11:26:21.464Z,28.50
2024-05-09T11:28:49.115Z,27.90
2024-05-09T11:31:16.963Z,28.30
2024-05-09T11:33:45.263Z,28.40
2024-05-09T11:36:13.290Z,28.40
2024-05-09T11:38:41.542Z,27.20
2024-05-09T11:41:09.418Z,26.70
2024-05-09T11:43:37.055Z,26.10
2024-05-09T11:46:04.872Z,25.60
2024-05-09T11:48:32.870Z,26.20
2024-05-09T11:51:00.610Z,26.40
2024-05-09T11:53:28.583Z,27.00
2024-05-09T11:55:56.269Z,26.80
2024-05-09T11:58:24.005Z,26.40
2024-05-09T12:00:51.707Z,26.70
2024-05-09T12:03:19.573Z,27.20
2024-05-09T12:05:47.297Z,27.90
2024-05-09T12:08:15.063Z,28.30
2024-05-09T12:10:42.905Z,28.70
2024-05-09T12:13:10.777Z,28.80
2024-05-09T12:15:39.213Z,29.40
2024-05-09T12:18:08.307Z,29.60
2024-05-09T12:20:39.398Z,29.30
2024-05-09T12:23:10.139Z,29.10
2024-05-09T12:25:40.091Z,28.40
2024-05-09T12:28:08.937Z,28.10
2024-05-09T12:30:39.735Z,27.50
2024-05-09T12:33:11.807Z,27.50
2024-05-09T12:35:41.739Z,27.20
2024-05-09T12:38:10.946Z,27.60
2024-05-09T12:40:39.528Z,27.80
2024-05-09T12:43:08.692Z,28.00
2024-05-09T12:45:38.193Z,28.10
2024-05-09T12:48:07.569Z,27.50
2024-05-09T12:50:36.409Z,27.20
2024-05-09T12:53:05.332Z,27.20
2024-05-09T12:55:40.775Z,27.10
2024-05-09T12:58:17.784Z,26.70
2024-05-09T13:00:46.733Z,26.00
2024-05-09T13:03:15.134Z,25.80
2024-05-09T13:05:43.780Z,25.30
2024-05-09T13:08:11.847Z,25.20
2024-05-09T13:10:39.688Z,25.20
2024-05-09T13:13:07.623Z,25.30
2024-05-09T13:15:35.280Z,25.10
2024-05-09T13:18:04.055Z,24.90
2024-05-09T13:20:34.914Z,25.70
2024-05-09T13:23:08.339Z,26.40
2024-05-09T13:25:39.652Z,26.10
2024-05-09T13:28:08.197Z,25.80
2024-05-09T13:30:40.597Z,25.80
2024-05-09T13:33:14.164Z,25.60
2024-05-09T13:35:47.357Z,25.20
2024-05-09T13:38:21.437Z,25.60
2024-05-09T13:40:50.434Z,26.00
2024-05-09T13:43:19.131Z,26.00
2024-05-09T13:45:47.671Z,26.10
2024-05-09T13:48:15.772Z,25.80
2024-05-09T13:50:43.515Z,25.50
2024-05-09T13:53:11.117Z,25.80
2024-05-09T13:55:39.571Z,25.30
2024-05-09T13:58:08.550Z,25.30
2024-05-09T14:00:44.895Z,25.40
2024-05-09T14:03:19.486Z,25.80
2024-05-09T14:05:49.647Z,26.20
2024-05-09T14:08:18.316Z,26.60
2024-05-09T14:10:47.369Z,27.00
2024-05-09T14:13:16.364Z,26.70
2024-05-09T14:15:44.427Z,26.60
2024-05-09T14:18:13.893Z,26.40
2024-05-09T14:20:43.087Z,26.60
2024-05-09T14:23:11.509Z,26.60
2024-05-09T14:25:41.981Z,26.50
2024-05-09T14:28:12.566Z,26.70
2024-05-09T14:30:41.523Z,26.80
2024-05-09T14:33:09.781Z,26.90
2024-05-09T14:35:39.107Z,26.60
2024-05-09T14:38:08.529Z,26.70
2024-05-09T14:40:42.058Z,26.70
2024-05-09T14:43:13.438Z,26.70
2024-05-09T14:45:42.095Z,26.80
2024-05-09T14:48:10.410Z,26.80
2024-05-09T14:50:40.309Z,26.70
2024-05-09T14:53:13.395Z,26.70
2024-05-09T14:55:43.465Z,26.90
2024-05-09T14:58:12.923Z,27.10
2024-05-09T15:00:47.709Z,27.10
2024-05-09T15:03:19.558Z,27.00
2024-05-09T15:05:48.375Z,26.60
2024-05-09T15:08:18.757Z,26.70
2024-05-09T15:10:46.815Z,26.70
2024-05-09T15:13:16.622Z,26.60
2024-05-09T15:15:45.224Z,26.70
2024-05-09T15:18:14.398Z,26.20
2024-05-09T15:20:43.872Z,25.90
2024-05-09T15:23:11.789Z,25.90
2024-05-09T15:25:39.305Z,26.20
2024-05-09T15:28:07.807Z,26.20
2024-05-09T15:30:35.902Z,26.40
2024-05-09T15:33:04.259Z,26.80
2024-05-09T15:35:32.392Z,27.20
2024-05-09T15:38:01.000Z,27.80
2024-05-09T15:40:36.007Z,28.00
2024-05-09T15:43:09.713Z,28.10
2024-05-09T15:45:40.255Z,28.00
2024-05-09T15:48:10.328Z,28.20
2024-05-09T15:50:41.337Z,28.30
2024-05-09T15:53:12.278Z,28.50
2024-05-09T15:55:41.134Z,28.20
2024-05-09T15:58:09.309Z,27.70
2024-05-09T16:00:40.834Z,27.90
2024-05-09T16:03:12.771Z,27.60
2024-05-09T16:05:43.203Z,27.50
2024-05-09T16:08:13.131Z,27.00
2024-05-09T16:10:44.105Z,26.80
2024-05-09T16:13:13.280Z,25.90
2024-05-09T16:15:41.157Z,25.50
2024-05-09T16:18:09.054Z,25.50
2024-05-09T16:20:40.409Z,25.70
2024-05-09T16:23:10.381Z,25.90
2024-05-09T16:25:39.607Z,26.10
2024-05-09T16:28:10.301Z,26.00
2024-05-09T16:30:40.010Z,26.00
2024-05-09T16:33:08.622Z,26.00
2024-05-09T16:35:37.995Z,26.00
2024-05-09T16:38:06.792Z,26.10
2024-05-09T16:40:39.035Z,26.10
2024-05-09T16:43:13.167Z,25.90
2024-05-09T16:45:42.452Z,25.90
2024-05-09T16:48:10.363Z,26.00
2024-05-09T16:50:38.312Z,26.20
2024-05-09T16:53:07.038Z,26.10
2024-05-09T16:55:36.178Z,26.10
2024-05-09T16:58:04.917Z,26.00
2024-05-09T17:00:40.444Z,25.50
2024-05-09T17:03:14.230Z,24.80
2024-05-09T17:05:44.075Z,24.30
2024-05-09T17:08:12.634Z,24.10
2024-05-09T17:10:40.322Z,24.10
2024-05-09T17:13:08.472Z,23.80
2024-05-09T17:15:37.603Z,23.80
2024-05-09T17:18:09.365Z,23.70
2024-05-09T17:20:37.761Z,23.40
2024-05-09T17:23:06.662Z,23.10
2024-05-09T17:25:34.766Z,23.20
2024-05-09T17:28:02.838Z,23.20
2024-05-09T17:30:35.530Z,23.40
2024-05-09T17:33:08.219Z,23.50
2024-05-09T17:35:37.389Z,23.70
2024-05-09T17:38:06.849Z,23.70
2024-05-09T17:40:37.157Z,23.70
2024-05-09T17:43:08.479Z,23.50
2024-05-09T17:45:38.187Z,23.40
2024-05-09T17:48:06.527Z,23.40
2024-05-09T17:50:36.731Z,23.20
2024-05-09T17:53:06.818Z,23.40
2024-05-09T17:55:35.632Z,23.30
2024-05-09T17:58:05.625Z,23.40
2024-05-09T18:00:38.968Z,23.40
2024-05-09T18:03:10.170Z,23.30
2024-05-09T18:05:38.369Z,23.30
2024-05-09T18:08:07.348Z,23.00
2024-05-09T18:10:38.220Z,23.00
2024-05-09T18:13:12.205Z,22.80
2024-05-09T18:15:41.200Z,22.60
2024-05-09T18:18:09.671Z,22.40
2024-05-09T18:20:43.018Z,22.20
2024-05-09T18:23:16.123Z,22.10
2024-05-09T18:25:46.036Z,21.90
2024-05-09T18:28:14.155Z,21.80
2024-05-09T18:30:42.003Z,21.60
2024-05-09T18:33:11.554Z,21.60
2024-05-09T18:35:43.891Z,21.50
2024-05-09T18:38:11.773Z,21.40
2024-05-09T18:40:43.556Z,21.40
2024-05-09T18:43:13.101Z,21.30
2024-05-09T18:45:40.839Z,21.30
2024-05-09T18:48:09.437Z,21.20
2024-05-09T18:50:40.334Z,21.20
2024-05-09T18:53:13.454Z,21.10
2024-05-09T18:55:44.954Z,21.00
2024-05-09T18:58:12.869Z,20.90
2024-05-09T19:00:43.818Z,20.80
2024-05-09T19:03:14.543Z,20.70
2024-05-09T19:05:44.688Z,20.70
2024-05-09T19:08:14.092Z,20.70
2024-05-09T19:10:41.797Z,20.60
2024-05-09T19:13:12.577Z,20.50
2024-05-09T19:15:43.467Z,20.50
2024-05-09T19:18:14.025Z,20.50
2024-05-09T19:20:42.568Z,20.50
2024-05-09T19:23:10.376Z,20.60
2024-05-09T19:25:37.966Z,20.60
2024-05-09T19:28:06.048Z,20.70
2024-05-09T19:30:39.680Z,20.60
2024-05-09T19:33:12.039Z,20.60
2024-05-09T19:35:40.797Z,20.50
2024-05-09T19:38:08.357Z,20.50
2024-05-09T19:40:36.482Z,20.40
2024-05-09T19:43:06.293Z,20.30
2024-05-09T19:45:35.796Z,20.30
2024-05-09T19:48:05.344Z,20.30
2024-05-09T19:50:41.264Z,20.30
2024-05-09T19:53:12.961Z,20.30
2024-05-09T19:55:41.576Z,20.30
2024-05-09T19:58:10.726Z,20.40
2024-05-09T20:00:42.040Z,20.40
2024-05-09T20:03:15.732Z,20.40
2024-05-09T20:05:47.646Z,20.30
2024-05-09T20:08:15.371Z,20.30
2024-05-09T20:10:43.329Z,20.30
2024-05-09T20:13:11.466Z,20.20
2024-05-09T20:15:39.214Z,20.30
2024-05-09T20:18:07.505Z,20.20
2024-05-09T20:20:39.673Z,20.20
2024-05-09T20:23:13.936Z,20.10
2024-05-09T20:25:42.462Z,20.10
2024-05-09T20:28:10.673Z,20.10
2024-05-09T20:30:39.232Z,20.10
2024-05-09T20:33:08.657Z,20.00
2024-05-09T20:35:37.572Z,19.90
2024-05-09T20:38:05.443Z,19.90
2024-05-09T20:40:37.368Z,19.90
2024-05-09T20:43:10.869Z,19.90
2024-05-09T20:45:39.540Z,19.80
2024-05-09T20:48:08.562Z,19.80
2024-05-09T20:50:40.366Z,19.70
2024-05-09T20:53:12.169Z,19.70
2024-05-09T20:55:40.730Z,19.60
2024-05-09T20:58:09.276Z,19.60
2024-05-09T21:00:40.792Z,19.60
2024-05-09T21:03:12.919Z,19.50
2024-05-09T21:05:42.050Z,19.40
2024-05-09T21:08:10.156Z,19.30
2024-05-09T21:10:38.160Z,19.20
2024-05-09T21:13:07.274Z,19.10
2024-05-09T21:15:35.994Z,19.10
2024-05-09T21:18:04.845Z,19.00
2024-05-09T21:20:33.589Z,19.00
2024-05-09T21:23:02.452Z,18.90
2024-05-09T21:25:31.509Z,18.90
2024-05-09T21:27:59.405Z,18.90
2024-05-09T21:30:33.148Z,18.80
2024-05-09T21:33:10.945Z,18.80
2024-05-09T21:35:40.496Z,18.70
2024-05-09T21:38:08.390Z,18.70
2024-05-09T21:40:37.492Z,18.60
2024-05-09T21:43:09.318Z,18.60
2024-05-09T21:45:37.826Z,18.60
2024-05-09T21:48:07.211Z,18.60
2024-05-09T21:50:40.492Z,18.60
2024-05-09T21:53:13.797Z,18.60
2024-05-09T21:55:45.041Z,18.60
2024-05-09T21:58:16.394Z,18.50
2024-05-09T22:00:44.885Z,18.50
2024-05-09T22:03:14.889Z,18.50
2024-05-09T22:05:42.880Z,18.50
2024-05-09T22:08:10.926Z,18.50
2024-05-09T22:10:39.028Z,18.50
2024-05-09T22:13:07.751Z,18.50
2024-05-09T22:15:37.583Z,18.50
2024-05-09T22:18:08.830Z,18.50
2024-05-09T22:20:39.560Z,18.40
2024-05-09T22:23:09.022Z,18.40
2024-05-09T22:25:37.447Z,18.30
2024-05-09T22:28:05.711Z,18.20
2024-05-09T22:30:37.569Z,18.20
2024-05-09T22:33:09.891Z,18.00
2024-05-09T22:35:40.395Z,18.00
2024-05-09T22:38:08.946Z,17.90
2024-05-09T22:40:45.810Z,17.90
2024-05-09T22:43:22.319Z,17.80
2024-05-09T22:45:52.734Z,17.70
2024-05-09T22:48:20.813Z,17.70
2024-05-09T22:50:48.718Z,17.60
2024-05-09T22:53:16.750Z,17.60
2024-05-09T22:55:44.568Z,17.60
2024-05-09T22:58:12.439Z,17.60
2024-05-09T23:00:40.553Z,17.60
2024-05-09T23:03:08.764Z,17.60
2024-05-09T23:05:36.643Z,17.60
2024-05-09T23:08:04.692Z,17.50
2024-05-09T23:10:36.558Z,17.50
2024-05-09T23:13:07.912Z,17.50
2024-05-09T23:15:37.484Z,17.40
2024-05-09T23:18:05.994Z,17.40
2024-05-09T23:20:38.296Z,17.30
2024-05-09T23:23:09.796Z,17.20
2024-05-09T23:25:38.731Z,17.00
2024-05-09T23:28:07.252Z,16.80
2024-05-09T23:30:38.944Z,16.80
2024-05-09T23:33:11.505Z,16.80
2024-05-09T23:35:41.936Z,16.80
2024-05-09T23:38:09.679Z,16.70
2024-05-09T23:40:40.179Z,16.70
2024-05-09T23:43:11.363Z,16.70
2024-05-09T23:45:40.079Z,16.70
2024-05-09T23:48:08.665Z,16.70
2024-05-09T23:50:38.612Z,16.70
2024-05-09T23:53:09.345Z,16.70
2024-05-09T23:55:38.557Z,16.80
2024-05-09T23:58:07.710Z,16.70
